Terminal Aerodrome Forecast
Issued by NWS

Home | Current Version | Previous Version | Text Only | Print | Product List | Glossary On
Versions: 1 2 3 4 5 6 7 8 9 10 11 12 13 14
000
FTUS42 KFFC 201129
TAFRYY
TAF
KRYY 201129Z 2012/2112 26004KT P6SM SKC
     FM201400 30005KT P6SM SCT035
     FM201600 30008KT P6SM SCT040
     FM202100 29008KT P6SM SCT060
     FM210100 VRB03KT P6SM SCT250=

USA.gov is the U.S. government's official web portal to all federal, state and local government web resources and services.